sensor_id;sensor_type;location;lat;lon;timestamp;pressure;altitude;pressure_sealevel;temperature;humidity
72585;BME280;60618;40.084;32.908;2023-07-13T00:01:32;90069.22;;;19.25;60.88
72585;BME280;60618;40.084;32.908;2023-07-13T00:03:59;90063.88;;;19.20;60.61
72585;BME280;60618;40.084;32.908;2023-07-13T00:06:26;90070.00;;;19.20;60.48
72585;BME280;60618;40.084;32.908;2023-07-13T00:08:53;90061.38;;;19.22;60.27
72585;BME280;60618;40.084;32.908;2023-07-13T00:11:20;90064.31;;;19.24;60.13
72585;BME280;60618;40.084;32.908;2023-07-13T00:13:47;90066.00;;;19.27;59.81
72585;BME280;60618;40.084;32.908;2023-07-13T00:16:14;90067.22;;;19.26;59.97
72585;BME280;60618;40.084;32.908;2023-07-13T00:18:41;90059.34;;;19.28;59.79
72585;BME280;60618;40.084;32.908;2023-07-13T00:21:08;90055.50;;;19.23;59.98
72585;BME280;60618;40.084;32.908;2023-07-13T00:23:37;90056.44;;;19.26;59.73
72585;BME280;60618;40.084;32.908;2023-07-13T00:26:06;90050.47;;;19.14;60.14
72585;BME280;60618;40.084;32.908;2023-07-13T00:28:34;90055.72;;;19.07;60.42
72585;BME280;60618;40.084;32.908;2023-07-13T00:31:01;90046.50;;;19.15;60.14
72585;BME280;60618;40.084;32.908;2023-07-13T00:33:29;90047.81;;;19.09;60.44
72585;BME280;60618;40.084;32.908;2023-07-13T00:35:56;90046.38;;;19.08;60.22
72585;BME280;60618;40.084;32.908;2023-07-13T00:38:23;90039.06;;;19.03;60.33
72585;BME280;60618;40.084;32.908;2023-07-13T00:40:51;90054.53;;;19.02;59.96
72585;BME280;60618;40.084;32.908;2023-07-13T00:43:20;90046.13;;;18.87;60.41
72585;BME280;60618;40.084;32.908;2023-07-13T00:48:18;90040.50;;;19.04;59.89
72585;BME280;60618;40.084;32.908;2023-07-13T00:50:49;90037.09;;;19.03;59.97
72585;BME280;60618;40.084;32.908;2023-07-13T00:53:18;90046.00;;;19.17;59.45
72585;BME280;60618;40.084;32.908;2023-07-13T00:55:47;90047.16;;;19.21;59.07
72585;BME280;60618;40.084;32.908;2023-07-13T00:58:15;90044.19;;;19.25;58.53
72585;BME280;60618;40.084;32.908;2023-07-13T01:00:43;90036.63;;;19.37;58.12
72585;BME280;60618;40.084;32.908;2023-07-13T01:03:10;90040.97;;;19.26;58.50
72585;BME280;60618;40.084;32.908;2023-07-13T01:05:37;90037.16;;;19.35;58.04
72585;BME280;60618;40.084;32.908;2023-07-13T01:08:04;90032.34;;;19.28;57.62
72585;BME280;60618;40.084;32.908;2023-07-13T01:10:31;90034.16;;;19.20;58.10
72585;BME280;60618;40.084;32.908;2023-07-13T01:12:58;90034.75;;;19.13;58.00
72585;BME280;60618;40.084;32.908;2023-07-13T01:15:44;90034.53;;;19.11;58.04
72585;BME280;60618;40.084;32.908;2023-07-13T01:18:24;90035.19;;;19.17;57.56
72585;BME280;60618;40.084;32.908;2023-07-13T01:20:58;90036.44;;;19.16;57.94
72585;BME280;60618;40.084;32.908;2023-07-13T01:23:27;90038.47;;;19.10;57.89
72585;BME280;60618;40.084;32.908;2023-07-13T01:25:55;90031.78;;;18.97;58.60
72585;BME280;60618;40.084;32.908;2023-07-13T01:28:23;90043.72;;;19.02;58.66
72585;BME280;60618;40.084;32.908;2023-07-13T01:30:50;90036.09;;;18.87;59.13
72585;BME280;60618;40.084;32.908;2023-07-13T01:33:17;90039.22;;;18.91;59.01
72585;BME280;60618;40.084;32.908;2023-07-13T01:35:46;90037.38;;;18.81;59.34
72585;BME280;60618;40.084;32.908;2023-07-13T01:38:18;90047.25;;;18.78;59.15
72585;BME280;60618;40.084;32.908;2023-07-13T01:40:46;90050.81;;;18.62;59.77
72585;BME280;60618;40.084;32.908;2023-07-13T01:43:13;90050.94;;;18.51;60.46
72585;BME280;60618;40.084;32.908;2023-07-13T01:45:40;90056.78;;;18.55;60.25
72585;BME280;60618;40.084;32.908;2023-07-13T01:48:10;90052.63;;;18.54;60.61
72585;BME280;60618;40.084;32.908;2023-07-13T01:50:37;90052.41;;;18.52;60.67
72585;BME280;60618;40.084;32.908;2023-07-13T01:53:04;90050.09;;;18.61;60.39
72585;BME280;60618;40.084;32.908;2023-07-13T01:55:31;90057.94;;;18.65;60.09
72585;BME280;60618;40.084;32.908;2023-07-13T01:57:58;90054.75;;;18.61;60.21
72585;BME280;60618;40.084;32.908;2023-07-13T02:00:25;90055.72;;;18.63;60.25
72585;BME280;60618;40.084;32.908;2023-07-13T02:02:52;90059.56;;;18.25;62.42
72585;BME280;60618;40.084;32.908;2023-07-13T02:05:19;90053.81;;;18.09;62.92
72585;BME280;60618;40.084;32.908;2023-07-13T02:07:46;90045.72;;;18.09;62.98
72585;BME280;60618;40.084;32.908;2023-07-13T02:10:14;90053.00;;;18.14;63.24
72585;BME280;60618;40.084;32.908;2023-07-13T02:12:41;90044.09;;;18.01;62.99
72585;BME280;60618;40.084;32.908;2023-07-13T02:15:09;90057.69;;;17.54;66.02
72585;BME280;60618;40.084;32.908;2023-07-13T02:17:36;90062.53;;;17.25;67.48
72585;BME280;60618;40.084;32.908;2023-07-13T02:20:04;90058.59;;;17.26;68.18
72585;BME280;60618;40.084;32.908;2023-07-13T02:22:31;90068.78;;;16.98;69.49
72585;BME280;60618;40.084;32.908;2023-07-13T02:24:59;90070.56;;;16.90;69.95
72585;BME280;60618;40.084;32.908;2023-07-13T02:27:25;90062.56;;;17.14;67.64
72585;BME280;60618;40.084;32.908;2023-07-13T02:29:53;90068.25;;;17.46;66.62
72585;BME280;60618;40.084;32.908;2023-07-13T02:32:20;90055.13;;;17.67;65.29
72585;BME280;60618;40.084;32.908;2023-07-13T02:34:47;90060.69;;;17.80;65.14
72585;BME280;60618;40.084;32.908;2023-07-13T02:37:14;90064.06;;;17.86;64.51
72585;BME280;60618;40.084;32.908;2023-07-13T02:39:41;90062.34;;;17.89;64.52
72585;BME280;60618;40.084;32.908;2023-07-13T02:42:08;90060.25;;;18.01;63.99
72585;BME280;60618;40.084;32.908;2023-07-13T02:44:35;90050.94;;;18.02;63.87
72585;BME280;60618;40.084;32.908;2023-07-13T02:47:02;90067.00;;;18.13;63.06
72585;BME280;60618;40.084;32.908;2023-07-13T02:49:29;90067.34;;;18.28;62.40
72585;BME280;60618;40.084;32.908;2023-07-13T02:51:56;90071.00;;;18.31;62.24
72585;BME280;60618;40.084;32.908;2023-07-13T02:54:23;90067.03;;;18.37;61.78
72585;BME280;60618;40.084;32.908;2023-07-13T02:56:50;90070.41;;;18.43;61.63
72585;BME280;60618;40.084;32.908;2023-07-13T02:59:17;90074.09;;;18.40;61.49
72585;BME280;60618;40.084;32.908;2023-07-13T03:01:43;90073.19;;;18.32;62.05
72585;BME280;60618;40.084;32.908;2023-07-13T03:04:10;90068.78;;;18.35;61.47
72585;BME280;60618;40.084;32.908;2023-07-13T03:06:38;90072.63;;;18.39;61.19
72585;BME280;60618;40.084;32.908;2023-07-13T03:09:05;90077.97;;;18.21;63.01
72585;BME280;60618;40.084;32.908;2023-07-13T03:11:31;90081.47;;;17.85;65.15
72585;BME280;60618;40.084;32.908;2023-07-13T03:13:58;90075.09;;;17.89;64.60
72585;BME280;60618;40.084;32.908;2023-07-13T03:16:25;90076.56;;;17.84;65.63
72585;BME280;60618;40.084;32.908;2023-07-13T03:18:52;90076.97;;;17.64;66.14
72585;BME280;60618;40.084;32.908;2023-07-13T03:21:19;90075.69;;;17.70;66.12
72585;BME280;60618;40.084;32.908;2023-07-13T03:23:46;90073.06;;;17.95;65.02
72585;BME280;60618;40.084;32.908;2023-07-13T03:26:16;90070.59;;;18.21;64.53
72585;BME280;60618;40.084;32.908;2023-07-13T03:28:44;90075.66;;;18.30;64.31
72585;BME280;60618;40.084;32.908;2023-07-13T03:31:15;90075.56;;;18.41;64.09
72585;BME280;60618;40.084;32.908;2023-07-13T03:33:43;90069.66;;;18.67;63.57
72585;BME280;60618;40.084;32.908;2023-07-13T03:36:14;90079.53;;;18.84;62.01
72585;BME280;60618;40.084;32.908;2023-07-13T03:38:41;90076.13;;;18.83;60.41
72585;BME280;60618;40.084;32.908;2023-07-13T03:41:08;90075.41;;;19.02;59.97
72585;BME280;60618;40.084;32.908;2023-07-13T03:43:35;90075.41;;;19.20;59.54
72585;BME280;60618;40.084;32.908;2023-07-13T03:46:02;90073.00;;;19.36;58.76
72585;BME280;60618;40.084;32.908;2023-07-13T03:48:29;90076.25;;;19.47;57.12
72585;BME280;60618;40.084;32.908;2023-07-13T03:50:55;90073.66;;;19.61;57.79
72585;BME280;60618;40.084;32.908;2023-07-13T03:53:22;90078.91;;;19.72;57.00
72585;BME280;60618;40.084;32.908;2023-07-13T03:55:49;90072.06;;;19.84;56.49
72585;BME280;60618;40.084;32.908;2023-07-13T03:58:32;90082.50;;;19.93;56.55
72585;BME280;60618;40.084;32.908;2023-07-13T04:01:00;90077.75;;;20.12;55.20
72585;BME280;60618;40.084;32.908;2023-07-13T04:03:27;90074.66;;;20.22;54.82
72585;BME280;60618;40.084;32.908;2023-07-13T04:05:55;90079.25;;;20.27;54.14
72585;BME280;60618;40.084;32.908;2023-07-13T04:08:22;90078.91;;;20.17;53.62
72585;BME280;60618;40.084;32.908;2023-07-13T04:10:49;90083.69;;;20.11;53.00
72585;BME280;60618;40.084;32.908;2023-07-13T04:13:16;90092.34;;;20.23;52.81
72585;BME280;60618;40.084;32.908;2023-07-13T04:15:43;90085.69;;;20.24;52.53
72585;BME280;60618;40.084;32.908;2023-07-13T04:18:10;90099.03;;;20.35;52.08
72585;BME280;60618;40.084;32.908;2023-07-13T04:20:37;90103.84;;;20.42;51.49
72585;BME280;60618;40.084;32.908;2023-07-13T04:23:04;90102.94;;;20.53;51.91
72585;BME280;60618;40.084;32.908;2023-07-13T04:25:31;90104.28;;;20.73;50.64
72585;BME280;60618;40.084;32.908;2023-07-13T04:27:57;90109.31;;;20.95;51.11
72585;BME280;60618;40.084;32.908;2023-07-13T04:30:25;90112.09;;;21.16;53.38
72585;BME280;60618;40.084;32.908;2023-07-13T04:32:52;90113.22;;;21.47;53.17
72585;BME280;60618;40.084;32.908;2023-07-13T04:35:20;90112.09;;;21.76;52.43
72585;BME280;60618;40.084;32.908;2023-07-13T04:37:48;90116.81;;;21.97;51.83
72585;BME280;60618;40.084;32.908;2023-07-13T04:40:17;90119.38;;;22.16;52.10
72585;BME280;60618;40.084;32.908;2023-07-13T04:42:47;90126.47;;;22.40;52.06
72585;BME280;60618;40.084;32.908;2023-07-13T04:45:15;90120.81;;;22.37;52.01
72585;BME280;60618;40.084;32.908;2023-07-13T04:47:41;90120.88;;;22.66;50.74
72585;BME280;60618;40.084;32.908;2023-07-13T04:50:09;90125.91;;;22.62;50.21
72585;BME280;60618;40.084;32.908;2023-07-13T04:52:36;90119.31;;;22.50;50.81
72585;BME280;60618;40.084;32.908;2023-07-13T04:55:03;90123.22;;;22.41;50.68
72585;BME280;60618;40.084;32.908;2023-07-13T04:57:30;90123.06;;;22.67;50.70
72585;BME280;60618;40.084;32.908;2023-07-13T04:59:57;90118.28;;;23.10;49.70
72585;BME280;60618;40.084;32.908;2023-07-13T05:02:24;90125.00;;;23.52;47.97
72585;BME280;60618;40.084;32.908;2023-07-13T05:04:51;90123.91;;;23.92;45.73
72585;BME280;60618;40.084;32.908;2023-07-13T05:07:18;90125.88;;;23.84;44.58
72585;BME280;60618;40.084;32.908;2023-07-13T05:09:45;90122.63;;;23.93;43.81
72585;BME280;60618;40.084;32.908;2023-07-13T05:12:12;90128.50;;;23.61;42.02
72585;BME280;60618;40.084;32.908;2023-07-13T05:14:39;90128.09;;;23.13;43.15
72585;BME280;60618;40.084;32.908;2023-07-13T05:17:06;90127.84;;;22.82;43.71
72585;BME280;60618;40.084;32.908;2023-07-13T05:19:33;90128.34;;;22.73;44.03
72585;BME280;60618;40.084;32.908;2023-07-13T05:22:02;90126.84;;;22.85;43.59
72585;BME280;60618;40.084;32.908;2023-07-13T05:24:29;90121.22;;;22.91;43.76
72585;BME280;60618;40.084;32.908;2023-07-13T05:26:56;90132.56;;;23.03;44.11
72585;BME280;60618;40.084;32.908;2023-07-13T05:29:23;90131.25;;;22.75;44.47
72585;BME280;60618;40.084;32.908;2023-07-13T05:31:52;90120.72;;;22.92;44.18
72585;BME280;60618;40.084;32.908;2023-07-13T05:34:19;90120.00;;;23.28;43.72
72585;BME280;60618;40.084;32.908;2023-07-13T05:36:46;90118.56;;;22.99;43.82
72585;BME280;60618;40.084;32.908;2023-07-13T05:39:12;90130.16;;;22.99;42.95
72585;BME280;60618;40.084;32.908;2023-07-13T05:41:39;90133.16;;;23.16;43.31
72585;BME280;60618;40.084;32.908;2023-07-13T05:44:06;90124.31;;;22.87;44.04
72585;BME280;60618;40.084;32.908;2023-07-13T05:46:33;90126.00;;;23.34;42.92
72585;BME280;60618;40.084;32.908;2023-07-13T05:49:00;90122.34;;;23.24;42.86
72585;BME280;60618;40.084;32.908;2023-07-13T05:51:27;90123.56;;;23.51;42.09
72585;BME280;60618;40.084;32.908;2023-07-13T05:53:54;90122.38;;;23.32;42.59
72585;BME280;60618;40.084;32.908;2023-07-13T05:56:21;90133.56;;;23.57;42.29
72585;BME280;60618;40.084;32.908;2023-07-13T05:58:52;90120.06;;;23.43;41.89
72585;BME280;60618;40.084;32.908;2023-07-13T06:01:19;90127.72;;;23.52;42.52
72585;BME280;60618;40.084;32.908;2023-07-13T06:03:49;90131.13;;;23.89;42.61
72585;BME280;60618;40.084;32.908;2023-07-13T06:06:16;90127.78;;;24.19;41.75
72585;BME280;60618;40.084;32.908;2023-07-13T06:08:43;90117.22;;;24.00;41.81
72585;BME280;60618;40.084;32.908;2023-07-13T06:11:17;90119.56;;;24.04;41.28
72585;BME280;60618;40.084;32.908;2023-07-13T06:13:44;90118.34;;;24.28;41.55
72585;BME280;60618;40.084;32.908;2023-07-13T06:16:12;90115.63;;;24.20;40.35
72585;BME280;60618;40.084;32.908;2023-07-13T06:18:40;90119.94;;;24.08;39.91
72585;BME280;60618;40.084;32.908;2023-07-13T06:21:13;90124.28;;;23.96;40.48
72585;BME280;60618;40.084;32.908;2023-07-13T06:23:41;90116.13;;;24.03;40.49
72585;BME280;60618;40.084;32.908;2023-07-13T06:26:09;90102.72;;;24.21;39.34
72585;BME280;60618;40.084;32.908;2023-07-13T06:28:37;90107.44;;;24.20;39.61
72585;BME280;60618;40.084;32.908;2023-07-13T06:31:08;90105.50;;;24.36;39.86
72585;BME280;60618;40.084;32.908;2023-07-13T06:33:37;90108.41;;;24.38;38.66
72585;BME280;60618;40.084;32.908;2023-07-13T06:36:05;90102.78;;;24.36;38.61
72585;BME280;60618;40.084;32.908;2023-07-13T06:38:32;90104.94;;;24.53;38.69
72585;BME280;60618;40.084;32.908;2023-07-13T06:40:59;90105.50;;;24.67;37.30
72585;BME280;60618;40.084;32.908;2023-07-13T06:43:26;90105.66;;;25.07;35.74
72585;BME280;60618;40.084;32.908;2023-07-13T06:45:55;90107.47;;;24.89;35.81
72585;BME280;60618;40.084;32.908;2023-07-13T06:48:22;90103.84;;;24.94;35.70
72585;BME280;60618;40.084;32.908;2023-07-13T06:50:50;90092.56;;;25.13;35.46
72585;BME280;60618;40.084;32.908;2023-07-13T06:53:18;90100.94;;;24.77;35.16
72585;BME280;60618;40.084;32.908;2023-07-13T06:55:46;90089.66;;;25.18;34.19
72585;BME280;60618;40.084;32.908;2023-07-13T06:58:14;90091.00;;;25.50;34.94
72585;BME280;60618;40.084;32.908;2023-07-13T07:00:41;90091.69;;;25.58;34.56
72585;BME280;60618;40.084;32.908;2023-07-13T07:03:08;90095.75;;;25.42;31.90
72585;BME280;60618;40.084;32.908;2023-07-13T07:05:35;90091.06;;;25.35;33.92
72585;BME280;60618;40.084;32.908;2023-07-13T07:08:03;90088.78;;;25.56;33.80
72585;BME280;60618;40.084;32.908;2023-07-13T07:10:30;90089.13;;;26.08;33.61
72585;BME280;60618;40.084;32.908;2023-07-13T07:12:57;90098.06;;;26.01;33.25
72585;BME280;60618;40.084;32.908;2023-07-13T07:15:25;90087.53;;;25.97;32.91
72585;BME280;60618;40.084;32.908;2023-07-13T07:17:56;90092.00;;;25.78;33.29
72585;BME280;60618;40.084;32.908;2023-07-13T07:20:23;90082.94;;;25.60;32.62
72585;BME280;60618;40.084;32.908;2023-07-13T07:22:50;90086.38;;;26.08;32.09
72585;BME280;60618;40.084;32.908;2023-07-13T07:25:17;90088.00;;;26.11;32.03
72585;BME280;60618;40.084;32.908;2023-07-13T07:27:44;90079.13;;;26.03;31.95
72585;BME280;60618;40.084;32.908;2023-07-13T07:30:14;90078.06;;;26.23;29.75
72585;BME280;60618;40.084;32.908;2023-07-13T07:32:44;90081.78;;;26.68;30.13
72585;BME280;60618;40.084;32.908;2023-07-13T07:35:14;90077.34;;;26.23;30.60
72585;BME280;60618;40.084;32.908;2023-07-13T07:37:41;90081.59;;;26.16;31.76
72585;BME280;60618;40.084;32.908;2023-07-13T07:40:11;90088.75;;;26.37;30.52
72585;BME280;60618;40.084;32.908;2023-07-13T07:42:40;90075.84;;;26.29;30.87
72585;BME280;60618;40.084;32.908;2023-07-13T07:45:08;90076.78;;;26.57;29.51
72585;BME280;60618;40.084;32.908;2023-07-13T07:47:34;90070.72;;;26.83;28.77
72585;BME280;60618;40.084;32.908;2023-07-13T07:50:02;90075.06;;;26.86;28.21
72585;BME280;60618;40.084;32.908;2023-07-13T07:52:29;90073.53;;;26.76;28.19
72585;BME280;60618;40.084;32.908;2023-07-13T07:54:55;90062.72;;;27.37;28.90
72585;BME280;60618;40.084;32.908;2023-07-13T07:57:42;90067.69;;;27.83;27.18
72585;BME280;60618;40.084;32.908;2023-07-13T08:00:13;90065.28;;;28.14;26.58
72585;BME280;60618;40.084;32.908;2023-07-13T08:02:44;90066.75;;;28.25;25.82
72585;BME280;60618;40.084;32.908;2023-07-13T08:05:13;90065.78;;;28.03;26.18
72585;BME280;60618;40.084;32.908;2023-07-13T08:07:43;90062.00;;;27.98;26.19
72585;BME280;60618;40.084;32.908;2023-07-13T08:10:10;90066.78;;;27.98;26.02
72585;BME280;60618;40.084;32.908;2023-07-13T08:12:38;90065.69;;;27.66;26.17
72585;BME280;60618;40.084;32.908;2023-07-13T08:15:14;90052.44;;;27.46;25.21
72585;BME280;60618;40.084;32.908;2023-07-13T08:17:41;90055.56;;;27.59;26.18
72585;BME280;60618;40.084;32.908;2023-07-13T08:20:08;90058.03;;;27.65;24.22
72585;BME280;60618;40.084;32.908;2023-07-13T08:22:36;90053.47;;;27.67;23.97
72585;BME280;60618;40.084;32.908;2023-07-13T08:25:03;90051.53;;;28.05;23.88
72585;BME280;60618;40.084;32.908;2023-07-13T08:27:30;90050.34;;;28.62;23.32
72585;BME280;60618;40.084;32.908;2023-07-13T08:29:57;90051.91;;;29.11;22.92
72585;BME280;60618;40.084;32.908;2023-07-13T08:32:24;90053.31;;;28.93;23.11
72585;BME280;60618;40.084;32.908;2023-07-13T08:34:51;90045.19;;;28.39;22.11
72585;BME280;60618;40.084;32.908;2023-07-13T08:37:18;90041.69;;;28.02;22.18
72585;BME280;60618;40.084;32.908;2023-07-13T08:39:46;90045.22;;;28.12;22.50
72585;BME280;60618;40.084;32.908;2023-07-13T08:42:22;90037.19;;;28.50;23.19
72585;BME280;60618;40.084;32.908;2023-07-13T08:45:22;90042.72;;;28.70;21.77
72585;BME280;60618;40.084;32.908;2023-07-13T08:47:59;90044.06;;;28.88;21.46
72585;BME280;60618;40.084;32.908;2023-07-13T08:50:30;90036.06;;;28.73;21.84
72585;BME280;60618;40.084;32.908;2023-07-13T08:53:13;90040.06;;;28.99;21.78
72585;BME280;60618;40.084;32.908;2023-07-13T08:55:42;90044.25;;;29.00;21.22
72585;BME280;60618;40.084;32.908;2023-07-13T08:58:13;90042.16;;;28.81;22.30
72585;BME280;60618;40.084;32.908;2023-07-13T09:00:52;90037.31;;;28.89;22.27
72585;BME280;60618;40.084;32.908;2023-07-13T09:03:23;90043.47;;;28.80;21.96
72585;BME280;60618;40.084;32.908;2023-07-13T09:05:57;90028.16;;;28.31;20.65
72585;BME280;60618;40.084;32.908;2023-07-13T09:14:26;90036.88;;;29.02;21.81
72585;BME280;60618;40.084;32.908;2023-07-13T09:16:59;90033.44;;;28.55;21.60
72585;BME280;60618;40.084;32.908;2023-07-13T09:19:30;90023.56;;;28.33;23.78
72585;BME280;60618;40.084;32.908;2023-07-13T09:22:04;90018.19;;;28.72;24.07
72585;BME280;60618;40.084;32.908;2023-07-13T09:27:23;90015.69;;;29.13;23.52
72585;BME280;60618;40.084;32.908;2023-07-13T09:30:04;90020.28;;;29.00;23.78
72585;BME280;60618;40.084;32.908;2023-07-13T09:32:36;90008.88;;;29.43;23.00
72585;BME280;60618;40.084;32.908;2023-07-13T09:35:11;90013.22;;;29.75;22.49
72585;BME280;60618;40.084;32.908;2023-07-13T09:37:38;90009.34;;;29.58;22.91
72585;BME280;60618;40.084;32.908;2023-07-13T09:40:12;90005.56;;;29.63;22.70
72585;BME280;60618;40.084;32.908;2023-07-13T09:42:42;90011.47;;;29.11;24.00
72585;BME280;60618;40.084;32.908;2023-07-13T09:45:09;90005.56;;;29.25;23.68
72585;BME280;60618;40.084;32.908;2023-07-13T09:47:39;89994.72;;;29.36;22.92
72585;BME280;60618;40.084;32.908;2023-07-13T09:50:10;89996.88;;;29.28;23.32
72585;BME280;60618;40.084;32.908;2023-07-13T09:55:30;89994.16;;;29.19;23.90
72585;BME280;60618;40.084;32.908;2023-07-13T09:57:57;89984.63;;;29.39;23.57
72585;BME280;60618;40.084;32.908;2023-07-13T10:00:27;89986.81;;;29.50;22.91
72585;BME280;60618;40.084;32.908;2023-07-13T10:03:05;89980.00;;;29.42;23.76
72585;BME280;60618;40.084;32.908;2023-07-13T10:05:40;89987.75;;;28.77;23.89
72585;BME280;60618;40.084;32.908;2023-07-13T10:08:24;89978.00;;;29.13;24.03
72585;BME280;60618;40.084;32.908;2023-07-13T10:11:02;89974.38;;;29.49;23.35
72585;BME280;60618;40.084;32.908;2023-07-13T10:13:37;89972.22;;;29.98;22.70
72585;BME280;60618;40.084;32.908;2023-07-13T10:16:07;89970.97;;;29.80;22.70
72585;BME280;60618;40.084;32.908;2023-07-13T10:18:46;89961.34;;;29.69;22.48
72585;BME280;60618;40.084;32.908;2023-07-13T10:21:16;89966.53;;;29.65;22.98
72585;BME280;60618;40.084;32.908;2023-07-13T10:23:50;89959.63;;;29.35;22.64
72585;BME280;60618;40.084;32.908;2023-07-13T10:26:23;89955.72;;;29.38;23.22
72585;BME280;60618;40.084;32.908;2023-07-13T10:28:54;89952.25;;;29.57;22.90
72585;BME280;60618;40.084;32.908;2023-07-13T10:31:23;89949.81;;;30.02;22.91
72585;BME280;60618;40.084;32.908;2023-07-13T10:33:51;89951.03;;;30.30;22.92
72585;BME280;60618;40.084;32.908;2023-07-13T10:39:26;89942.63;;;30.28;22.84
72585;BME280;60618;40.084;32.908;2023-07-13T10:41:58;89940.28;;;30.03;22.76
72585;BME280;60618;40.084;32.908;2023-07-13T10:44:28;89948.09;;;29.96;22.41
72585;BME280;60618;40.084;32.908;2023-07-13T10:47:02;89952.00;;;29.93;22.12
72585;BME280;60618;40.084;32.908;2023-07-13T10:49:32;89946.63;;;30.05;22.95
72585;BME280;60618;40.084;32.908;2023-07-13T10:52:00;89943.66;;;29.82;23.35
72585;BME280;60618;40.084;32.908;2023-07-13T10:54:32;89937.59;;;29.74;23.66
72585;BME280;60618;40.084;32.908;2023-07-13T10:57:21;89932.25;;;29.85;22.87
72585;BME280;60618;40.084;32.908;2023-07-13T11:00:15;89933.03;;;29.66;23.09
72585;BME280;60618;40.084;32.908;2023-07-13T11:02:43;89926.22;;;29.67;24.06
72585;BME280;60618;40.084;32.908;2023-07-13T11:05:29;89924.94;;;30.00;23.62
72585;BME280;60618;40.084;32.908;2023-07-13T11:10:52;89918.88;;;29.60;23.14
72585;BME280;60618;40.084;32.908;2023-07-13T11:21:30;89908.03;;;30.34;22.54
72585;BME280;60618;40.084;32.908;2023-07-13T11:24:04;89904.66;;;30.14;22.63
72585;BME280;60618;40.084;32.908;2023-07-13T11:26:51;89897.72;;;30.13;22.30
72585;BME280;60618;40.084;32.908;2023-07-13T11:29:24;89890.28;;;30.26;22.02
72585;BME280;60618;40.084;32.908;2023-07-13T11:31:54;89895.22;;;30.48;21.20
72585;BME280;60618;40.084;32.908;2023-07-13T11:34:38;89902.03;;;30.16;22.23
72585;BME280;60618;40.084;32.908;2023-07-13T11:37:12;89893.97;;;30.40;20.81
72585;BME280;60618;40.084;32.908;2023-07-13T11:39:42;89897.75;;;30.35;19.52
72585;BME280;60618;40.084;32.908;2023-07-13T11:42:16;89901.03;;;30.21;20.42
72585;BME280;60618;40.084;32.908;2023-07-13T11:44:47;89889.63;;;30.37;18.83
72585;BME280;60618;40.084;32.908;2023-07-13T11:47:34;89876.44;;;30.66;19.66
72585;BME280;60618;40.084;32.908;2023-07-13T11:50:01;89877.94;;;30.79;18.58
72585;BME280;60618;40.084;32.908;2023-07-13T11:52:36;89864.44;;;30.40;17.70
72585;BME280;60618;40.084;32.908;2023-07-13T11:55:18;89885.06;;;30.72;17.67
72585;BME280;60618;40.084;32.908;2023-07-13T11:57:50;89872.69;;;31.16;17.11
72585;BME280;60618;40.084;32.908;2023-07-13T12:00:22;89869.81;;;31.14;15.97
72585;BME280;60618;40.084;32.908;2023-07-13T12:02:52;89873.81;;;31.23;15.76
72585;BME280;60618;40.084;32.908;2023-07-13T12:05:20;89875.91;;;31.13;16.03
72585;BME280;60618;40.084;32.908;2023-07-13T12:07:49;89873.09;;;31.22;15.39
72585;BME280;60618;40.084;32.908;2023-07-13T12:12:57;89872.88;;;31.30;15.65
72585;BME280;60618;40.084;32.908;2023-07-13T12:15:38;89870.88;;;31.42;14.65
72585;BME280;60618;40.084;32.908;2023-07-13T12:18:19;89872.44;;;31.45;14.54
72585;BME280;60618;40.084;32.908;2023-07-13T12:20:48;89861.50;;;31.24;15.03
72585;BME280;60618;40.084;32.908;2023-07-13T12:23:24;89858.75;;;31.35;15.24
72585;BME280;60618;40.084;32.908;2023-07-13T12:25:52;89864.09;;;31.67;15.37
72585;BME280;60618;40.084;32.908;2023-07-13T12:28:35;89856.47;;;31.77;15.63
72585;BME280;60618;40.084;32.908;2023-07-13T12:31:06;89852.81;;;31.62;15.69
72585;BME280;60618;40.084;32.908;2023-07-13T12:33:33;89856.34;;;31.86;15.06
72585;BME280;60618;40.084;32.908;2023-07-13T12:36:02;89861.50;;;32.04;15.95
72585;BME280;60618;40.084;32.908;2023-07-13T12:38:31;89847.59;;;32.02;15.25
72585;BME280;60618;40.084;32.908;2023-07-13T12:41:00;89843.03;;;31.95;14.27
72585;BME280;60618;40.084;32.908;2023-07-13T12:43:35;89841.00;;;32.07;14.77
72585;BME280;60618;40.084;32.908;2023-07-13T12:46:05;89836.91;;;32.31;15.58
72585;BME280;60618;40.084;32.908;2023-07-13T12:48:43;89836.47;;;32.00;15.83
72585;BME280;60618;40.084;32.908;2023-07-13T12:51:21;89833.41;;;32.42;15.31
72585;BME280;60618;40.084;32.908;2023-07-13T12:53:50;89838.47;;;32.23;16.12
72585;BME280;60618;40.084;32.908;2023-07-13T12:56:26;89835.97;;;32.15;15.68
72585;BME280;60618;40.084;32.908;2023-07-13T12:58:58;89831.06;;;31.90;15.60
72585;BME280;60618;40.084;32.908;2023-07-13T13:01:32;89832.38;;;31.77;15.87
72585;BME280;60618;40.084;32.908;2023-07-13T13:04:02;89824.97;;;31.91;15.80
72585;BME280;60618;40.084;32.908;2023-07-13T13:06:30;89816.19;;;31.60;16.19
72585;BME280;60618;40.084;32.908;2023-07-13T13:08:58;89821.56;;;32.16;16.03
72585;BME280;60618;40.084;32.908;2023-07-13T13:11:27;89818.19;;;32.41;15.45
72585;BME280;60618;40.084;32.908;2023-07-13T13:13:54;89819.19;;;32.11;15.36
72585;BME280;60618;40.084;32.908;2023-07-13T13:16:31;89821.47;;;32.03;16.21
72585;BME280;60618;40.084;32.908;2023-07-13T13:19:01;89806.16;;;31.76;16.04
72585;BME280;60618;40.084;32.908;2023-07-13T13:21:32;89815.94;;;31.68;16.40
72585;BME280;60618;40.084;32.908;2023-07-13T13:23:59;89815.34;;;31.69;16.29
72585;BME280;60618;40.084;32.908;2023-07-13T13:26:26;89808.06;;;31.85;16.45
72585;BME280;60618;40.084;32.908;2023-07-13T13:28:53;89806.38;;;31.80;16.76
72585;BME280;60618;40.084;32.908;2023-07-13T13:31:20;89802.69;;;31.76;16.41
72585;BME280;60618;40.084;32.908;2023-07-13T13:33:47;89802.66;;;31.64;16.18